createdAt,value
2023-06-13T00:05:23.910Z,4
2023-06-13T00:11:01.030Z,4
2023-06-13T00:16:36.788Z,4
2023-06-13T00:22:12.911Z,2
2023-06-13T00:27:51.082Z,0
2023-06-13T00:33:27.168Z,6
2023-06-13T00:39:03.605Z,2
2023-06-13T00:44:39.630Z,2
2023-06-13T00:50:17.768Z,2
2023-06-13T00:56:16.003Z,2
2023-06-13T01:01:52.295Z,0
2023-06-13T01:07:32.396Z,2
2023-06-13T01:13:08.331Z,0
2023-06-13T01:18:43.826Z,0
2023-06-13T01:24:20.330Z,0
2023-06-13T01:29:56.392Z,2
2023-06-13T01:35:32.056Z,0
2023-06-13T01:41:07.496Z,0
2023-06-13T01:46:42.982Z,0
2023-06-13T01:52:18.323Z,0
2023-06-13T01:57:54.716Z,0
2023-06-13T02:03:31.591Z,0
2023-06-13T02:09:08.064Z,0
2023-06-13T02:14:43.918Z,0
2023-06-13T02:20:21.624Z,2
2023-06-13T02:25:57.396Z,0
2023-06-13T02:31:35.037Z,0
2023-06-13T02:37:10.399Z,0
2023-06-13T02:42:46.549Z,0
2023-06-13T02:48:24.223Z,0
2023-06-13T02:54:23.931Z,0
2023-06-13T02:59:58.099Z,0
2023-06-13T03:05:33.333Z,0
2023-06-13T03:11:09.718Z,0
2023-06-13T03:16:46.111Z,0
2023-06-13T03:22:25.850Z,0
2023-06-13T03:28:02.673Z,0
2023-06-13T03:33:38.948Z,2
2023-06-13T03:39:14.925Z,4
2023-06-13T03:44:51.814Z,4
2023-06-13T03:50:28.117Z,0
2023-06-13T03:56:25.111Z,2
2023-06-13T04:01:59.743Z,0
2023-06-13T04:07:36.037Z,2
2023-06-13T04:13:12.528Z,0
2023-06-13T04:18:48.734Z,0
2023-06-13T04:24:25.602Z,2
2023-06-13T04:30:02.184Z,0
2023-06-13T04:35:38.009Z,2
2023-06-13T04:41:13.428Z,0
2023-06-13T04:46:49.823Z,4
2023-06-13T04:52:25.644Z,2
2023-06-13T04:58:01.283Z,0
2023-06-13T05:04:02.739Z,7
2023-06-13T05:09:47.377Z,0
2023-06-13T05:15:23.124Z,0
2023-06-13T05:21:07.559Z,0
2023-06-13T05:26:42.793Z,2
2023-06-13T05:32:18.717Z,0
2023-06-13T05:37:54.510Z,2
2023-06-13T05:43:30.819Z,4
2023-06-13T05:49:07.056Z,2
2023-06-13T05:55:05.234Z,4
2023-06-13T06:00:40.762Z,4
2023-06-13T06:06:17.156Z,2
2023-06-13T06:11:52.904Z,2
2023-06-13T06:17:28.831Z,4
2023-06-13T06:23:04.447Z,0
2023-06-13T06:28:39.644Z,2
2023-06-13T06:34:19.420Z,0
2023-06-13T06:39:57.492Z,0
2023-06-13T06:45:33.718Z,0
2023-06-13T06:51:09.405Z,0
2023-06-13T06:56:46.184Z,2
2023-06-13T07:02:22.883Z,4
2023-06-13T07:07:59.051Z,0
2023-06-13T07:13:34.749Z,0
2023-06-13T07:19:12.351Z,0
2023-06-13T07:24:48.559Z,2
2023-06-13T07:30:26.467Z,2
2023-06-13T07:36:10.175Z,2
2023-06-13T07:41:46.451Z,0
2023-06-13T07:47:22.275Z,0
2023-06-13T07:52:59.185Z,2
2023-06-13T07:58:35.005Z,4
2023-06-13T08:04:12.624Z,2
2023-06-13T08:09:51.797Z,0
2023-06-13T08:15:27.808Z,2
2023-06-13T08:21:03.256Z,0
2023-06-13T08:26:39.622Z,4
2023-06-13T08:32:16.137Z,6
2023-06-13T08:37:52.456Z,8
2023-06-13T08:43:29.485Z,10
2023-06-13T08:49:05.281Z,8
2023-06-13T08:56:05.632Z,10
2023-06-13T09:01:40.799Z,8
2023-06-13T09:07:17.175Z,10
2023-06-13T09:12:53.997Z,17
2023-06-13T09:18:29.929Z,8
2023-06-13T09:24:06.069Z,10
2023-06-13T09:29:49.399Z,10
2023-06-13T09:35:38.627Z,18
2023-06-13T09:41:15.488Z,18
2023-06-13T09:46:51.905Z,18
2023-06-13T09:52:27.960Z,18
2023-06-13T09:58:34.397Z,16
2023-06-13T10:04:10.371Z,14
2023-06-13T10:09:45.712Z,16
2023-06-13T10:15:22.671Z,12
2023-06-13T10:20:57.970Z,10
2023-06-13T10:26:33.599Z,10
2023-06-13T10:32:14.561Z,18
2023-06-13T10:37:53.626Z,12
2023-06-13T10:43:34.817Z,6
2023-06-13T10:49:10.832Z,14
2023-06-13T10:55:11.417Z,8
2023-06-13T11:00:44.525Z,6
2023-06-13T11:06:21.020Z,10
2023-06-13T11:11:59.522Z,8
2023-06-13T11:17:39.340Z,6
2023-06-13T11:23:15.934Z,14
2023-06-13T11:28:51.636Z,14
2023-06-13T11:34:27.545Z,4
2023-06-13T11:40:21.895Z,14
2023-06-13T11:46:18.098Z,10
2023-06-13T11:51:55.511Z,6
2023-06-13T11:57:30.937Z,8
2023-06-13T12:03:08.235Z,6
2023-06-13T12:09:16.119Z,14
2023-06-13T12:14:53.047Z,10
2023-06-13T12:20:47.441Z,12
2023-06-13T12:26:23.500Z,12
2023-06-13T12:31:58.938Z,8
2023-06-13T12:37:34.338Z,12
2023-06-13T12:43:12.695Z,10
2023-06-13T12:48:52.418Z,4
2023-06-13T12:54:51.977Z,16
2023-06-13T13:00:26.526Z,12
2023-06-13T13:06:02.042Z,4
2023-06-13T13:11:38.392Z,6
2023-06-13T13:17:14.976Z,4
2023-06-13T13:23:09.911Z,0
2023-06-13T13:29:17.091Z,10
2023-06-13T13:35:13.001Z,4
2023-06-13T13:40:49.474Z,0
2023-06-13T13:46:24.857Z,6
2023-06-13T13:52:02.198Z,10
2023-06-13T13:57:39.271Z,4
2023-06-13T14:03:15.352Z,4
2023-06-13T14:08:59.645Z,6
2023-06-13T14:14:40.116Z,6
2023-06-13T14:20:18.765Z,0
2023-06-13T14:25:54.632Z,8
2023-06-13T14:31:31.464Z,6
2023-06-13T14:37:08.586Z,4
2023-06-13T14:42:46.370Z,6
2023-06-13T14:48:21.494Z,2
2023-06-13T14:54:18.454Z,6
2023-06-13T14:59:51.639Z,2
2023-06-13T15:05:27.334Z,2
2023-06-13T15:11:02.619Z,10
2023-06-13T15:16:39.117Z,10
2023-06-13T15:22:16.170Z,10
2023-06-13T15:27:54.243Z,16
2023-06-13T15:33:29.088Z,18
2023-06-13T15:39:09.403Z,10
2023-06-13T15:44:46.380Z,2
2023-06-13T15:50:21.549Z,10
2023-06-13T15:56:18.730Z,15
2023-06-13T16:01:51.757Z,6
2023-06-13T16:07:26.574Z,18
2023-06-13T16:13:03.088Z,12
2023-06-13T16:18:59.194Z,14
2023-06-13T16:24:38.799Z,14
2023-06-13T16:30:34.346Z,12
2023-06-13T16:36:09.657Z,8
2023-06-13T16:41:48.739Z,10
2023-06-13T16:47:24.437Z,12
2023-06-13T16:53:00.996Z,14
2023-06-13T16:58:36.015Z,10
2023-06-13T17:04:12.407Z,18
2023-06-13T17:09:47.809Z,8
2023-06-13T17:15:23.763Z,14
2023-06-13T17:21:00.612Z,14
2023-06-13T17:26:35.648Z,2
2023-06-13T17:32:11.356Z,14
2023-06-13T17:37:50.507Z,18
2023-06-13T17:43:29.526Z,14
2023-06-13T17:49:15.063Z,20
2023-06-13T17:54:54.003Z,18
2023-06-13T18:00:31.028Z,18
2023-06-13T18:06:06.963Z,18
2023-06-13T18:11:42.560Z,8
2023-06-13T18:17:17.626Z,12
2023-06-13T18:22:53.500Z,12
2023-06-13T18:28:29.984Z,12
2023-06-13T18:34:05.934Z,4
2023-06-13T18:39:41.015Z,2
2023-06-13T18:45:19.145Z,10
2023-06-13T18:50:54.810Z,12
2023-06-13T18:56:52.815Z,11
2023-06-13T19:02:30.473Z,4
2023-06-13T19:08:24.768Z,8
2023-06-13T19:14:01.394Z,20
2023-06-13T19:19:38.076Z,17
2023-06-13T19:25:14.671Z,8
2023-06-13T19:30:51.297Z,6
2023-06-13T19:36:27.151Z,6
2023-06-13T19:42:02.519Z,16
2023-06-13T19:47:38.454Z,16
2023-06-13T19:53:15.173Z,8
2023-06-13T19:58:51.402Z,20
2023-06-13T20:04:27.983Z,25
